Time;durP1;ratioP1;P1;durP2;ratioP2;P2;SDS_P1;SDS_P2;PMS_P1;PMS_P2;Temp;Humidity;BMP_temperature;BMP_pressure;BME280_temperature;BME280_humidity;BME280_pressure;Samples;Min_cycle;Max_cycle;Signal;HPM_P1;HPM_P2
2021/12/31 00:00:47;;;;;;;1.20;1.02;;;18.40;61.00;;;;;;5054641;28;20587;-64
2021/12/31 00:03:14;;;;;;;1.92;1.15;;;18.40;61.00;;;;;;5054356;28;20633;-61
2021/12/31 00:05:39;;;;;;;1.42;1.13;;;18.40;61.00;;;;;;5053592;28;20286;-61
2021/12/31 00:08:05;;;;;;;1.33;1.10;;;18.40;61.00;;;;;;5054653;28;20181;-62
2021/12/31 00:10:30;;;;;;;1.25;1.13;;;18.40;61.10;;;;;;5054103;28;20175;-62
2021/12/31 00:12:56;;;;;;;1.92;1.27;;;18.00;60.80;;;;;;5053731;28;20533;-64
2021/12/31 00:15:22;;;;;;;1.33;1.10;;;18.40;61.00;;;;;;5053905;28;20171;-64
2021/12/31 00:17:48;;;;;;;1.15;1.05;;;18.40;61.00;;;;;;5054142;28;20664;-64
2021/12/31 00:20:17;;;;;;;1.90;1.15;;;18.40;62.00;;;;;;5053808;28;20175;-63
2021/12/31 00:23:00;;;;;;;2.28;1.35;;;18.40;61.10;;;;;;5053836;28;20219;-63
2021/12/31 00:25:25;;;;;;;2.33;1.67;;;18.40;61.10;;;;;;5053188;28;20630;-63
2021/12/31 00:27:51;;;;;;;1.40;1.30;;;18.40;61.00;;;;;;5054077;28;20210;-62
2021/12/31 00:30:16;;;;;;;1.45;1.20;;;18.30;61.00;;;;;;5052574;28;20289;-63
2021/12/31 00:32:42;;;;;;;1.60;1.02;;;18.30;61.00;;;;;;5053183;28;20179;-62
2021/12/31 00:35:08;;;;;;;1.13;1.02;;;18.30;61.00;;;;;;5054051;28;20711;-63
2021/12/31 00:37:35;;;;;;;0.95;0.95;;;18.30;61.90;;;;;;5053849;28;20664;-63
2021/12/31 00:40:03;;;;;;;2.88;1.27;;;18.30;61.10;;;;;;5053315;28;20233;-61
2021/12/31 00:42:29;;;;;;;2.05;1.13;;;18.30;61.20;;;;;;5053116;28;20694;-62
2021/12/31 00:44:54;;;;;;;1.60;1.00;;;18.30;61.10;;;;;;5053760;28;20179;-63
2021/12/31 00:47:20;;;;;;;1.48;1.10;;;18.30;61.10;;;;;;5052947;28;20202;-62
2021/12/31 00:49:46;;;;;;;2.00;1.30;;;18.30;61.10;;;;;;5053548;28;20258;-63
2021/12/31 00:52:11;;;;;;;1.77;1.20;;;18.30;61.10;;;;;;5053726;28;20247;-63
2021/12/31 00:54:38;;;;;;;1.73;1.20;;;18.20;61.00;;;;;;5052179;28;20205;-63
2021/12/31 00:57:04;;;;;;;2.35;1.63;;;18.20;61.10;;;;;;5053563;28;20194;-64
2021/12/31 00:59:31;;;;;;;2.22;1.40;;;18.20;61.10;;;;;;5053207;28;20649;-62
2021/12/31 01:02:00;;;;;;;1.10;1.00;;;18.20;61.10;;;;;;5052795;28;20250;-62
2021/12/31 01:04:26;;;;;;;1.10;1.00;;;18.30;61.10;;;;;;5053405;28;20563;-61
2021/12/31 01:06:51;;;;;;;1.48;1.23;;;18.20;61.10;;;;;;5053604;28;20637;-63
2021/12/31 01:09:17;;;;;;;1.25;1.15;;;18.30;61.10;;;;;;5052697;28;20203;-61
2021/12/31 01:11:46;;;;;;;1.15;1.08;;;18.20;61.10;;;;;;5053010;28;20175;-64
2021/12/31 01:14:26;;;;;;;1.35;1.25;;;18.20;61.10;;;;;;5053238;28;20182;-64
2021/12/31 01:16:57;;;;;;;1.67;1.00;;;18.20;61.10;;;;;;5052682;28;20233;-63
2021/12/31 01:21:51;;;;;;;1.20;1.10;;;18.20;61.00;;;;;;5052390;28;20206;-64
2021/12/31 01:24:18;;;;;;;1.27;1.00;;;18.20;61.10;;;;;;5053000;28;20225;-63
2021/12/31 01:26:45;;;;;;;1.50;1.25;;;18.10;61.00;;;;;;5053159;28;20171;-62
2021/12/31 01:29:10;;;;;;;1.48;0.95;;;18.20;61.00;;;;;;5052462;28;20172;-62
2021/12/31 01:31:42;;;;;;;1.33;1.17;;;18.20;61.00;;;;;;5052827;28;20167;-62
2021/12/31 01:34:07;;;;;;;1.52;1.40;;;18.20;61.00;;;;;;5053102;28;20171;-63
2021/12/31 01:36:33;;;;;;;1.25;1.10;;;18.20;61.10;;;;;;5052043;28;20537;-62
2021/12/31 01:38:58;;;;;;;1.92;1.40;;;18.10;61.00;;;;;;5052775;28;20271;-63
2021/12/31 01:41:24;;;;;;;1.58;1.10;;;18.20;61.00;;;;;;5052488;28;20673;-61
2021/12/31 01:43:51;;;;;;;2.13;1.30;;;18.10;61.00;;;;;;5052117;28;20218;-62
2021/12/31 01:46:17;;;;;;;1.40;1.30;;;18.10;61.00;;;;;;5052609;28;20661;-63
2021/12/31 01:49:01;;;;;;;2.22;1.45;;;18.10;61.00;;;;;;5052338;28;20258;-63
2021/12/31 01:51:27;;;;;;;1.60;1.10;;;18.10;61.00;;;;;;5051678;28;20210;-63
2021/12/31 01:53:53;;;;;;;1.55;0.95;;;18.10;61.00;;;;;;5052847;28;20202;-64
2021/12/31 01:56:18;;;;;;;1.63;1.30;;;18.10;61.00;;;;;;5052839;28;20198;-64
2021/12/31 01:58:44;;;;;;;1.38;1.17;;;18.10;61.00;;;;;;5050595;28;20309;-64
2021/12/31 02:01:10;;;;;;;1.20;1.05;;;18.10;61.00;;;;;;5052864;28;20183;-63
2021/12/31 02:03:36;;;;;;;1.58;1.23;;;18.10;61.00;;;;;;5051959;28;20234;-63
2021/12/31 02:06:01;;;;;;;1.33;1.10;;;18.10;61.00;;;;;;5049625;28;20249;-62
2021/12/31 02:08:29;;;;;;;1.73;1.13;;;18.10;61.00;;;;;;5050586;28;20221;-62
2021/12/31 02:10:55;;;;;;;2.15;1.30;;;18.10;61.00;;;;;;5050043;28;20182;-64
2021/12/31 02:13:20;;;;;;;1.33;1.20;;;18.10;61.00;;;;;;5051796;28;20501;-63
2021/12/31 02:15:46;;;;;;;1.52;1.20;;;18.10;61.00;;;;;;5052315;28;20187;-64
2021/12/31 02:18:11;;;;;;;1.95;1.33;;;18.10;61.00;;;;;;5051643;28;20171;-64
2021/12/31 02:20:44;;;;;;;1.77;1.35;;;18.10;61.00;;;;;;5051677;28;20174;-63
2021/12/31 02:23:17;;;;;;;3.75;1.13;;;18.10;61.00;;;;;;5052905;28;20211;-63
2021/12/31 02:25:43;;;;;;;2.38;1.20;;;18.10;61.00;;;;;;5051321;28;20179;-63
2021/12/31 02:28:08;;;;;;;1.63;1.30;;;18.10;61.00;;;;;;5052051;28;20183;-64
2021/12/31 02:30:34;;;;;;;3.13;1.27;;;18.00;61.70;;;;;;5051787;28;20171;-64
2021/12/31 02:32:59;;;;;;;1.45;1.13;;;18.00;60.90;;;;;;5051353;28;20340;-64
2021/12/31 02:35:25;;;;;;;1.75;1.58;;;18.10;61.00;;;;;;5051616;28;20268;-62
2021/12/31 02:37:50;;;;;;;2.45;1.27;;;18.00;60.90;;;;;;5051849;28;20195;-61
2021/12/31 02:40:21;;;;;;;1.25;1.15;;;18.00;60.90;;;;;;5051452;28;20193;-64
2021/12/31 02:42:47;;;;;;;1.35;1.20;;;18.00;60.90;;;;;;5052053;28;20211;-62
2021/12/31 02:45:13;;;;;;;1.10;1.00;;;18.00;60.90;;;;;;5051939;28;20655;-62
2021/12/31 02:47:43;;;;;;;1.30;1.10;;;18.00;60.90;;;;;;5050770;28;20187;-63
2021/12/31 02:50:11;;;;;;;1.40;1.17;;;18.00;60.90;;;;;;5051514;28;20230;-63
2021/12/31 02:52:37;;;;;;;1.42;1.33;;;18.00;60.90;;;;;;5051599;28;20227;-64
2021/12/31 02:55:03;;;;;;;1.08;0.90;;;18.00;60.90;;;;;;5051015;28;20539;-65
2021/12/31 02:57:28;;;;;;;1.00;1.00;;;18.00;60.90;;;;;;5051426;28;20250;-64
2021/12/31 02:59:54;;;;;;;1.17;1.00;;;18.00;60.80;;;;;;5050498;28;20182;-64
2021/12/31 03:02:24;;;;;;;1.52;1.27;;;18.00;60.90;;;;;;5049136;28;20202;-63
2021/12/31 03:04:51;;;;;;;1.50;1.20;;;18.00;60.90;;;;;;5050606;28;20179;-63
2021/12/31 03:07:17;;;;;;;0.95;0.95;;;18.00;60.90;;;;;;5050776;28;20232;-63
2021/12/31 03:09:46;;;;;;;1.42;0.95;;;18.00;60.90;;;;;;5050307;28;20175;-63
2021/12/31 03:12:13;;;;;;;1.80;1.17;;;18.00;60.80;;;;;;5034450;28;20183;-64
2021/12/31 03:14:39;;;;;;;1.30;1.20;;;18.00;60.90;;;;;;5050533;28;20188;-64
2021/12/31 03:17:05;;;;;;;1.42;1.10;;;18.00;60.90;;;;;;5051725;28;20618;-64
2021/12/31 03:19:30;;;;;;;1.20;1.10;;;17.90;60.80;;;;;;5037721;28;20181;-64
2021/12/31 03:21:56;;;;;;;1.80;1.00;;;18.00;60.90;;;;;;5054671;28;20198;-65
2021/12/31 03:24:21;;;;;;;1.55;0.95;;;17.90;60.80;;;;;;5055081;28;20206;-64
2021/12/31 03:26:47;;;;;;;0.98;0.88;;;17.90;60.80;;;;;;5055668;28;20174;-64
2021/12/31 03:29:12;;;;;;;2.38;1.17;;;17.90;60.80;;;;;;5054685;28;20173;-64
2021/12/31 03:31:38;;;;;;;2.50;1.38;;;17.90;60.80;;;;;;5054933;28;20678;-64
2021/12/31 03:34:03;;;;;;;2.22;1.13;;;17.90;60.80;;;;;;5055327;28;20179;-63
2021/12/31 03:36:29;;;;;;;2.03;1.10;;;17.90;60.80;;;;;;5054393;28;20641;-63
2021/12/31 03:38:54;;;;;;;1.15;1.10;;;17.90;60.80;;;;;;5055142;28;20284;-64
2021/12/31 03:41:20;;;;;;;1.15;1.00;;;17.90;60.80;;;;;;5054597;28;20615;-63
2021/12/31 03:43:46;;;;;;;1.35;0.95;;;17.90;60.70;;;;;;5054335;28;20318;-62
2021/12/31 03:46:11;;;;;;;1.38;1.02;;;17.90;60.80;;;;;;5054998;28;20265;-63
2021/12/31 03:48:37;;;;;;;1.92;1.08;;;17.90;60.80;;;;;;5054594;28;20225;-63
2021/12/31 03:51:02;;;;;;;1.20;1.05;;;17.90;60.80;;;;;;5054188;28;20175;-64
2021/12/31 03:53:28;;;;;;;1.40;1.20;;;17.90;60.80;;;;;;5054670;28;20179;-64
2021/12/31 03:55:53;;;;;;;1.20;1.10;;;17.90;60.80;;;;;;5054994;28;20575;-63
2021/12/31 03:58:19;;;;;;;1.65;1.30;;;17.90;60.80;;;;;;5053829;28;20175;-63
2021/12/31 04:00:46;;;;;;;1.63;1.10;;;17.90;60.70;;;;;;5054771;28;20286;-64
2021/12/31 04:03:11;;;;;;;1.17;1.08;;;17.90;60.70;;;;;;5054464;28;20298;-62
2021/12/31 04:05:38;;;;;;;0.95;0.93;;;17.90;60.70;;;;;;5053672;28;20257;-62
2021/12/31 04:08:04;;;;;;;1.27;1.08;;;17.90;60.70;;;;;;5054631;28;20181;-63
2021/12/31 04:10:30;;;;;;;2.05;1.00;;;17.90;60.70;;;;;;5053448;28;20179;-63
2021/12/31 04:12:55;;;;;;;1.40;1.30;;;17.90;60.70;;;;;;5054515;28;20171;-64
2021/12/31 04:15:21;;;;;;;1.25;0.80;;;17.90;60.70;;;;;;5054003;28;20218;-65
2021/12/31 04:17:47;;;;;;;2.50;1.15;;;17.90;60.70;;;;;;5053909;28;20176;-65
2021/12/31 04:20:19;;;;;;;1.17;1.08;;;17.90;60.70;;;;;;5054336;28;20719;-64
2021/12/31 04:22:52;;;;;;;1.38;1.05;;;17.80;60.60;;;;;;5054539;28;20222;-65
2021/12/31 04:25:18;;;;;;;1.38;1.10;;;17.80;60.60;;;;;;5053750;28;20179;-64
2021/12/31 04:27:43;;;;;;;1.70;1.05;;;17.80;60.70;;;;;;5053933;28;20237;-63
2021/12/31 04:30:09;;;;;;;1.35;1.10;;;17.90;61.60;;;;;;5053569;28;20171;-63
2021/12/31 04:32:35;;;;;;;1.85;1.00;;;17.80;60.60;;;;;;5053278;28;20175;-63
2021/12/31 04:35:00;;;;;;;1.33;1.23;;;17.80;60.60;;;;;;5054101;28;20204;-65
2021/12/31 04:37:26;;;;;;;1.20;1.10;;;17.80;60.60;;;;;;5053628;28;20175;-63
2021/12/31 04:39:51;;;;;;;1.73;0.90;;;17.90;60.70;;;;;;5053308;28;20178;-64
2021/12/31 04:42:20;;;;;;;1.17;1.13;;;17.80;60.60;;;;;;5053882;28;20167;-64
2021/12/31 04:44:45;;;;;;;2.35;1.33;;;17.80;60.60;;;;;;5054117;28;20175;-63
2021/12/31 04:47:11;;;;;;;1.33;0.95;;;17.80;60.70;;;;;;5053443;28;20183;-63
2021/12/31 04:49:36;;;;;;;0.98;0.98;;;17.80;60.60;;;;;;5053251;28;20230;-63
2021/12/31 04:52:02;;;;;;;1.05;0.95;;;17.80;60.60;;;;;;5053854;28;20357;-63
2021/12/31 04:54:27;;;;;;;0.95;0.95;;;17.80;60.60;;;;;;5052569;28;20668;-64
2021/12/31 04:56:58;;;;;;;0.90;0.90;;;17.80;60.60;;;;;;5053572;28;20171;-65
2021/12/31 04:59:23;;;;;;;1.27;1.00;;;17.80;60.60;;;;;;5053569;28;20550;-63
2021/12/31 05:01:49;;;;;;;1.42;0.90;;;17.80;60.60;;;;;;5052780;28;20178;-63
2021/12/31 05:04:15;;;;;;;1.13;1.00;;;17.80;60.60;;;;;;5053327;28;20206;-62
2021/12/31 05:06:41;;;;;;;2.53;1.20;;;17.80;60.60;;;;;;5052961;28;20178;-62
2021/12/31 05:09:06;;;;;;;1.27;1.00;;;17.80;60.60;;;;;;5053205;28;20176;-63
2021/12/31 05:11:32;;;;;;;1.80;0.93;;;17.80;60.60;;;;;;5052888;28;20652;-62
2021/12/31 05:13:58;;;;;;;0.70;0.70;;;17.80;60.60;;;;;;5052666;28;20179;-64
2021/12/31 05:16:23;;;;;;;1.77;1.23;;;17.80;60.60;;;;;;5053157;28;20171;-63
2021/12/31 05:18:49;;;;;;;1.10;0.90;;;17.80;60.60;;;;;;5053242;28;20179;-65
2021/12/31 05:21:14;;;;;;;1.40;0.80;;;17.80;60.60;;;;;;5052326;28;20220;-63
2021/12/31 05:23:43;;;;;;;1.20;1.08;;;17.80;60.60;;;;;;5052563;28;20576;-63
2021/12/31 05:26:08;;;;;;;2.22;1.10;;;17.80;60.60;;;;;;5053046;28;20175;-64
2021/12/31 05:28:34;;;;;;;1.25;1.02;;;17.80;60.60;;;;;;5052208;28;20213;-63
2021/12/31 05:30:59;;;;;;;1.30;1.13;;;17.80;60.60;;;;;;5053142;28;20254;-65
2021/12/31 05:33:25;;;;;;;1.25;0.80;;;17.70;60.50;;;;;;5052474;28;20175;-63
2021/12/31 05:35:56;;;;;;;1.52;0.98;;;17.70;60.50;;;;;;5052244;28;20175;-64
2021/12/31 05:38:22;;;;;;;0.88;0.88;;;17.70;60.50;;;;;;5052552;28;20511;-63
2021/12/31 05:40:47;;;;;;;1.88;1.00;;;17.80;60.60;;;;;;5051931;28;20210;-62
2021/12/31 05:43:13;;;;;;;1.58;1.10;;;17.70;60.50;;;;;;5051975;28;20238;-63
2021/12/31 05:45:39;;;;;;;1.58;1.00;;;17.70;60.50;;;;;;5052390;28;20617;-61
2021/12/31 05:48:05;;;;;;;0.85;0.85;;;17.70;60.50;;;;;;5052735;28;20564;-62
2021/12/31 05:50:32;;;;;;;2.03;0.88;;;17.70;60.50;;;;;;5051517;28;20250;-63
2021/12/31 05:52:58;;;;;;;1.10;1.00;;;17.70;60.50;;;;;;5052463;28;20637;-63
2021/12/31 05:55:23;;;;;;;1.60;1.17;;;17.70;60.50;;;;;;5052020;28;20260;-62
2021/12/31 05:57:49;;;;;;;1.10;1.10;;;17.70;60.50;;;;;;5051926;28;20202;-63
2021/12/31 06:00:15;;;;;;;0.82;0.82;;;17.70;60.50;;;;;;5052406;28;20551;-63
2021/12/31 06:02:40;;;;;;;1.63;1.13;;;17.70;60.50;;;;;;5052041;28;20206;-62
2021/12/31 06:05:06;;;;;;;1.13;1.05;;;17.70;60.50;;;;;;5051638;28;20167;-61
2021/12/31 06:07:32;;;;;;;1.83;1.02;;;17.70;60.50;;;;;;5051947;28;20183;-61
2021/12/31 06:09:57;;;;;;;1.00;0.90;;;17.70;60.50;;;;;;5052463;28;20182;-60
2021/12/31 06:12:24;;;;;;;1.60;1.02;;;17.70;60.50;;;;;;5051252;28;20167;-62
2021/12/31 06:14:50;;;;;;;1.55;0.98;;;17.70;60.50;;;;;;5052105;28;20533;-64
2021/12/31 06:17:23;;;;;;;0.90;0.90;;;17.70;60.50;;;;;;5051547;28;20183;-62
2021/12/31 06:19:48;;;;;;;1.70;0.88;;;17.70;60.50;;;;;;5052163;28;20195;-62
2021/12/31 06:22:15;;;;;;;1.80;1.40;;;17.60;60.50;;;;;;5052127;28;20224;-64
2021/12/31 06:24:41;;;;;;;1.17;0.90;;;17.70;60.50;;;;;;5051136;28;20183;-62
2021/12/31 06:27:07;;;;;;;1.33;1.20;;;17.70;60.50;;;;;;5052335;28;20171;-63
2021/12/31 06:29:32;;;;;;;1.70;0.90;;;17.60;60.50;;;;;;5051970;28;20182;-62
2021/12/31 06:31:58;;;;;;;1.42;1.02;;;17.60;60.40;;;;;;5051175;28;20183;-63
2021/12/31 06:34:23;;;;;;;1.42;0.90;;;17.60;60.50;;;;;;5051890;28;20552;-63
2021/12/31 06:36:49;;;;;;;2.65;1.13;;;17.60;60.50;;;;;;5050563;28;20626;-62
2021/12/31 06:39:14;;;;;;;1.42;1.10;;;17.60;60.50;;;;;;5051128;28;20187;-62
2021/12/31 06:41:40;;;;;;;1.98;1.23;;;17.60;60.50;;;;;;5051672;28;20174;-61
2021/12/31 06:44:05;;;;;;;0.98;0.90;;;17.60;60.40;;;;;;5051874;28;20580;-62
2021/12/31 06:46:31;;;;;;;1.30;0.95;;;17.60;60.40;;;;;;5050849;28;20626;-61
2021/12/31 06:48:57;;;;;;;1.17;1.08;;;17.60;60.40;;;;;;5051720;28;20638;-62
2021/12/31 06:51:22;;;;;;;1.05;0.90;;;17.60;60.50;;;;;;5051494;28;20708;-62
2021/12/31 06:53:47;;;;;;;0.98;0.88;;;17.60;60.50;;;;;;5050603;28;20179;-62
2021/12/31 06:56:13;;;;;;;1.67;1.00;;;17.60;60.50;;;;;;5051551;28;20626;-62
2021/12/31 06:58:39;;;;;;;1.10;1.00;;;17.60;60.50;;;;;;5051246;28;20182;-62
2021/12/31 07:01:04;;;;;;;1.35;1.00;;;17.60;60.50;;;;;;5050767;28;20225;-61
2021/12/31 07:03:31;;;;;;;1.02;0.98;;;17.60;60.50;;;;;;5051031;28;20207;-62
2021/12/31 07:05:57;;;;;;;0.90;0.70;;;17.60;60.50;;;;;;5051288;28;20178;-62
2021/12/31 07:08:22;;;;;;;1.63;0.90;;;17.60;60.50;;;;;;5050213;28;20170;-61
2021/12/31 07:10:48;;;;;;;0.88;0.85;;;17.60;60.50;;;;;;5051484;28;20221;-62
2021/12/31 07:13:13;;;;;;;1.33;1.05;;;17.60;60.50;;;;;;5051362;28;20175;-63
2021/12/31 07:15:40;;;;;;;1.33;1.20;;;17.60;60.50;;;;;;5050539;28;20168;-64
2021/12/31 07:18:06;;;;;;;0.88;0.88;;;17.60;60.40;;;;;;5051314;28;20225;-62
2021/12/31 07:20:31;;;;;;;1.65;1.30;;;17.60;60.40;;;;;;5050386;28;20175;-64
2021/12/31 07:23:01;;;;;;;1.20;1.10;;;17.60;60.40;;;;;;5050966;28;20680;-64
2021/12/31 07:25:27;;;;;;;1.25;1.08;;;17.60;60.40;;;;;;5049893;28;20175;-62
2021/12/31 07:27:53;;;;;;;1.30;1.20;;;17.60;60.50;;;;;;5050809;28;20191;-63
2021/12/31 07:30:19;;;;;;;1.33;1.23;;;17.60;60.40;;;;;;5051174;28;20171;-63
2021/12/31 07:32:44;;;;;;;2.15;1.17;;;17.60;60.40;;;;;;5051595;28;20206;-63
2021/12/31 07:35:10;;;;;;;0.90;0.90;;;17.50;60.40;;;;;;5050656;28;20201;-62
2021/12/31 07:37:37;;;;;;;1.83;0.98;;;17.60;60.40;;;;;;5050956;28;20312;-62
2021/12/31 07:40:05;;;;;;;1.10;1.00;;;17.60;60.40;;;;;;5051478;28;20264;-62
2021/12/31 07:42:30;;;;;;;2.08;1.17;;;17.50;60.40;;;;;;5050293;28;20199;-61
2021/12/31 07:44:56;;;;;;;2.00;1.08;;;17.50;60.30;;;;;;5051403;28;20195;-63
2021/12/31 07:47:21;;;;;;;0.95;0.95;;;17.60;60.40;;;;;;5051156;28;20194;-64
2021/12/31 07:49:47;;;;;;;1.65;0.80;;;17.50;60.40;;;;;;5050478;28;20270;-62
2021/12/31 07:52:13;;;;;;;1.35;1.00;;;17.50;60.40;;;;;;5051563;28;20176;-62
2021/12/31 07:54:38;;;;;;;2.00;0.98;;;17.50;60.30;;;;;;5050958;28;20557;-62
2021/12/31 07:57:04;;;;;;;1.10;0.90;;;17.50;60.30;;;;;;5050536;28;20457;-64
2021/12/31 07:59:29;;;;;;;0.80;0.80;;;17.50;60.30;;;;;;5050809;28;20283;-61
2021/12/31 08:01:55;;;;;;;1.73;0.95;;;17.50;60.40;;;;;;5051069;28;20258;-62
2021/12/31 08:04:20;;;;;;;1.10;1.10;;;17.50;60.40;;;;;;5050566;28;20207;-62
2021/12/31 08:06:46;;;;;;;1.83;1.17;;;17.50;60.30;;;;;;5054611;28;20265;-62
2021/12/31 08:09:11;;;;;;;2.08;0.95;;;17.50;60.30;;;;;;5054717;28;20241;-62
2021/12/31 08:11:37;;;;;;;1.13;1.02;;;17.50;60.30;;;;;;5053921;28;20238;-64
2021/12/31 08:14:03;;;;;;;1.77;1.27;;;17.50;60.30;;;;;;5054685;28;20171;-64
2021/12/31 08:16:29;;;;;;;0.80;0.80;;;17.50;60.30;;;;;;5054308;28;20182;-63
2021/12/31 08:18:57;;;;;;;1.48;1.15;;;17.50;60.30;;;;;;5054050;28;20187;-64
2021/12/31 08:21:23;;;;;;;1.05;1.00;;;17.50;60.30;;;;;;5054665;28;20180;-62
2021/12/31 08:23:48;;;;;;;1.55;1.10;;;17.50;60.30;;;;;;5053925;28;20217;-69
2021/12/31 08:26:14;;;;;;;1.27;1.05;;;17.50;60.70;;;;;;5054648;28;20179;-68
2021/12/31 08:28:40;;;;;;;2.25;1.42;;;17.50;60.50;;;;;;5054273;28;20637;-69
2021/12/31 08:31:05;;;;;;;1.15;0.90;;;17.50;60.50;;;;;;5053596;28;20209;-70
2021/12/31 08:33:31;;;;;;;1.63;1.10;;;17.50;60.40;;;;;;5052566;28;20167;-68
2021/12/31 08:35:56;;;;;;;2.33;0.98;;;17.60;60.80;;;;;;5054329;28;20176;-66
2021/12/31 08:38:23;;;;;;;1.70;1.38;;;17.60;61.40;;;;;;5053145;28;20186;-65
2021/12/31 08:40:48;;;;;;;4.38;1.38;;;17.60;61.00;;;;;;5054242;28;20206;-66
2021/12/31 08:43:14;;;;;;;3.30;1.30;;;17.60;61.20;;;;;;5053997;28;20640;-67
2021/12/31 08:45:39;;;;;;;2.83;1.65;;;17.60;61.00;;;;;;5053249;28;20228;-67
2021/12/31 08:48:05;;;;;;;2.38;0.98;;;17.50;60.80;;;;;;5054713;28;20217;-67
2021/12/31 08:50:31;;;;;;;3.38;1.30;;;17.50;60.80;;;;;;5053519;28;20242;-67
2021/12/31 08:52:56;;;;;;;2.53;1.25;;;17.50;60.80;;;;;;5053488;28;20470;-67
2021/12/31 08:55:22;;;;;;;2.55;1.45;;;17.60;61.10;;;;;;5053971;28;20167;-67
2021/12/31 08:57:47;;;;;;;2.00;1.17;;;17.60;61.00;;;;;;5053877;28;20167;-66
2021/12/31 09:00:13;;;;;;;1.95;1.30;;;17.60;60.80;;;;;;5053561;28;20171;-67
2021/12/31 09:02:42;;;;;;;3.33;1.20;;;17.60;60.70;;;;;;5052940;28;20223;-67
2021/12/31 09:05:08;;;;;;;4.45;1.33;;;17.60;60.70;;;;;;5054143;28;20261;-67
2021/12/31 09:07:33;;;;;;;4.07;1.20;;;17.60;60.90;;;;;;5052361;28;20269;-66
2021/12/31 09:09:59;;;;;;;4.97;1.13;;;17.60;61.00;;;;;;5053560;28;20289;-67
2021/12/31 09:12:24;;;;;;;1.38;1.10;;;17.60;61.30;;;;;;5053528;28;20247;-65
2021/12/31 09:14:50;;;;;;;7.88;1.40;;;17.60;60.80;;;;;;5052541;28;20180;-66
2021/12/31 09:17:15;;;;;;;1.98;1.00;;;17.70;60.80;;;;;;5052718;28;20179;-66
2021/12/31 09:19:41;;;;;;;2.40;1.33;;;17.70;60.60;;;;;;5052815;28;20233;-66
2021/12/31 09:22:06;;;;;;;3.45;1.77;;;17.70;60.60;;;;;;5052520;28;20167;-65
2021/12/31 09:24:32;;;;;;;3.30;1.38;;;17.70;60.60;;;;;;5052493;28;20297;-65
2021/12/31 09:26:57;;;;;;;3.22;1.30;;;17.70;60.60;;;;;;5051845;28;20178;-65
2021/12/31 09:29:23;;;;;;;2.25;1.10;;;17.70;60.50;;;;;;5052502;28;20178;-66
2021/12/31 09:31:50;;;;;;;2.67;1.20;;;17.70;60.60;;;;;;5052550;28;20271;-66
2021/12/31 09:34:16;;;;;;;3.35;1.20;;;17.70;60.60;;;;;;5052284;28;20187;-66
2021/12/31 09:36:41;;;;;;;2.38;1.10;;;17.70;60.70;;;;;;5052053;28;20172;-67
2021/12/31 09:39:07;;;;;;;3.35;1.30;;;17.80;61.00;;;;;;5052044;28;20183;-67
2021/12/31 09:41:32;;;;;;;2.05;1.30;;;17.80;61.00;;;;;;5051417;28;20643;-67
2021/12/31 09:43:58;;;;;;;2.35;1.08;;;17.80;61.00;;;;;;5052260;28;20237;-66
2021/12/31 09:46:23;;;;;;;3.00;1.35;;;17.80;60.60;;;;;;5050503;28;20266;-67
2021/12/31 09:48:49;;;;;;;3.33;1.40;;;17.80;60.60;;;;;;5051395;28;20498;-66
2021/12/31 09:51:15;;;;;;;2.25;1.10;;;17.80;60.80;;;;;;5052742;28;20325;-70
2021/12/31 09:53:41;;;;;;;2.90;1.10;;;17.80;60.90;;;;;;5051071;28;20593;-68
2021/12/31 09:56:10;;;;;;;2.05;1.40;;;17.80;60.90;;;;;;5052342;28;20245;-67
2021/12/31 09:58:36;;;;;;;1.92;1.27;;;17.80;60.60;;;;;;5052094;28;20546;-68
2021/12/31 10:01:02;;;;;;;1.48;1.00;;;17.80;60.90;;;;;;5052219;28;20222;-69
2021/12/31 10:03:29;;;;;;;4.03;1.30;;;17.80;61.30;;;;;;5051624;28;20218;-69
2021/12/31 10:06:11;;;;;;;1.20;1.10;;;17.80;60.80;;;;;;5052176;28;20225;-69
2021/12/31 10:08:45;;;;;;;3.42;1.23;;;17.80;60.90;;;;;;5051639;28;20644;-70
2021/12/31 10:11:17;;;;;;;1.17;1.00;;;17.80;61.00;;;;;;5051342;28;20206;-68
2021/12/31 10:13:51;;;;;;;2.33;1.05;;;17.80;61.10;;;;;;5051652;28;20209;-67
2021/12/31 10:16:30;;;;;;;3.72;1.20;;;17.80;60.60;;;;;;5051230;28;20273;-65
2021/12/31 10:19:15;;;;;;;1.40;1.13;;;17.80;61.00;;;;;;5052054;28;20163;-68
2021/12/31 10:21:46;;;;;;;3.97;1.20;;;17.70;61.10;;;;;;5051566;28;20183;-68
2021/12/31 10:24:18;;;;;;;3.47;1.05;;;17.70;60.80;;;;;;5050905;28;20217;-67
2021/12/31 10:26:44;;;;;;;3.53;1.38;;;17.70;60.80;;;;;;5051203;28;20175;-69
2021/12/31 10:29:09;;;;;;;2.95;1.20;;;17.70;60.80;;;;;;5051333;28;20284;-69
2021/12/31 10:31:45;;;;;;;2.38;1.17;;;17.70;60.80;;;;;;5049122;28;20505;-69
2021/12/31 10:34:30;;;;;;;1.92;1.27;;;17.70;60.90;;;;;;5051558;28;20174;-70
2021/12/31 10:37:00;;;;;;;2.45;1.25;;;17.70;60.90;;;;;;5051544;28;20183;-70
2021/12/31 10:39:31;;;;;;;1.77;1.15;;;17.70;60.80;;;;;;5050677;28;20183;-70
2021/12/31 10:42:03;;;;;;;2.10;1.10;;;17.70;60.80;;;;;;5051670;28;20199;-67
2021/12/31 10:44:49;;;;;;;2.03;1.15;;;17.70;60.80;;;;;;5050267;28;20689;-69
2021/12/31 10:47:18;;;;;;;3.05;1.30;;;17.70;60.70;;;;;;5051770;28;20278;-68
2021/12/31 10:50:02;;;;;;;2.33;1.23;;;17.70;60.60;;;;;;5051313;28;20222;-68
2021/12/31 10:52:36;;;;;;;1.75;1.20;;;17.70;60.60;;;;;;5050264;28;20215;-69
2021/12/31 10:55:04;;;;;;;1.42;1.27;;;17.70;60.60;;;;;;5057177;28;20182;-68
2021/12/31 10:57:37;;;;;;;1.27;1.00;;;17.70;60.60;;;;;;5054674;28;20193;-68
2021/12/31 11:00:06;;;;;;;1.75;1.10;;;17.70;60.50;;;;;;5069986;28;20183;-67
2021/12/31 11:02:32;;;;;;;2.17;1.23;;;17.70;60.40;;;;;;5057612;28;20668;-68
2021/12/31 11:04:58;;;;;;;2.30;1.10;;;17.70;60.40;;;;;;5070028;28;20183;-70
2021/12/31 11:07:24;;;;;;;3.15;1.17;;;17.70;60.40;;;;;;5068953;28;20198;-68
2021/12/31 11:09:49;;;;;;;2.90;1.05;;;17.70;60.40;;;;;;5070965;28;20206;-67
2021/12/31 11:12:15;;;;;;;2.58;1.25;;;17.70;60.40;;;;;;5039013;28;20178;-68
2021/12/31 11:14:40;;;;;;;1.85;1.60;;;17.70;60.40;;;;;;5032419;28;20183;-68
2021/12/31 11:17:06;;;;;;;2.38;1.05;;;17.70;60.40;;;;;;5033462;28;20175;-68
2021/12/31 11:19:31;;;;;;;2.00;1.30;;;17.70;60.40;;;;;;5050188;28;20206;-67
2021/12/31 11:21:57;;;;;;;1.63;1.15;;;17.70;60.40;;;;;;5033268;28;20182;-67
2021/12/31 11:24:30;;;;;;;1.63;1.02;;;17.70;60.40;;;;;;5032730;28;20206;-66
2021/12/31 11:26:57;;;;;;;2.08;1.20;;;17.60;60.30;;;;;;5050679;28;20178;-67
2021/12/31 11:29:23;;;;;;;2.75;1.77;;;17.70;60.40;;;;;;5065824;28;20258;-67
2021/12/31 11:31:48;;;;;;;2.38;1.08;;;17.60;60.30;;;;;;5069610;28;20265;-67
2021/12/31 11:34:14;;;;;;;2.10;1.10;;;17.60;61.10;;;;;;5070242;28;20236;-67
2021/12/31 11:36:41;;;;;;;2.47;1.60;;;17.70;60.30;;;;;;5070558;28;20181;-68
2021/12/31 11:39:28;;;;;;;2.25;1.40;;;17.70;60.30;;;;;;5072874;28;20183;-68
2021/12/31 11:42:02;;;;;;;1.60;1.30;;;17.70;60.20;;;;;;5074268;28;20177;-68
2021/12/31 11:44:28;;;;;;;1.98;1.00;;;17.70;60.20;;;;;;5074376;28;20289;-67
2021/12/31 11:47:29;;;;;;;1.98;1.25;;;17.70;60.10;;;;;;5074899;28;20629;-67
2021/12/31 11:50:23;;;;;;;1.55;1.00;;;17.70;60.10;;;;;;5051690;28;20230;-67
2021/12/31 11:53:01;;;;;;;2.78;1.10;;;17.70;60.10;;;;;;5074656;28;20198;-69
2021/12/31 11:55:27;;;;;;;1.45;1.15;;;17.70;60.10;;;;;;5073480;28;20312;-69
2021/12/31 11:57:58;;;;;;;1.70;1.20;;;17.70;60.10;;;;;;5074403;28;20262;-72
2021/12/31 12:00:27;;;;;;;3.50;1.20;;;17.90;60.40;;;;;;5074384;28;20265;-70
2021/12/31 12:02:52;;;;;;;3.85;1.50;;;17.90;60.30;;;;;;5063654;28;20211;-73
2021/12/31 12:05:20;;;;;;;2.58;1.30;;;17.90;60.40;;;;;;5054887;28;20413;-72
2021/12/31 12:07:51;;;;;;;2.55;1.65;;;18.00;60.30;;;;;;5054489;28;20179;-69
2021/12/31 12:10:19;;;;;;;4.13;1.42;;;18.00;60.40;;;;;;5053881;28;20175;-68
2021/12/31 12:12:50;;;;;;;2.90;1.40;;;18.00;60.40;;;;;;5054342;28;20697;-68
2021/12/31 12:15:19;;;;;;;4.25;1.63;;;17.90;60.60;;;;;;5054579;28;20207;-68
2021/12/31 12:17:45;;;;;;;2.85;1.33;;;17.90;60.60;;;;;;5053796;28;20179;-68
2021/12/31 12:20:18;;;;;;;2.22;1.25;;;17.90;60.60;;;;;;5054308;28;20198;-68
2021/12/31 12:22:50;;;;;;;3.17;1.27;;;17.90;60.60;;;;;;5054137;28;20201;-67
2021/12/31 12:25:24;;;;;;;3.20;1.42;;;17.90;60.60;;;;;;5054214;28;20187;-67
2021/12/31 12:28:10;;;;;;;2.00;1.08;;;17.90;60.60;;;;;;5054164;28;20178;-67
2021/12/31 12:30:46;;;;;;;3.47;1.35;;;17.90;61.40;;;;;;5052936;28;20171;-67
2021/12/31 12:35:48;;;;;;;2.88;1.83;;;17.90;60.90;;;;;;5053615;28;20571;-68
2021/12/31 12:38:22;;;;;;;5.18;1.58;;;17.90;61.00;;;;;;5053670;28;20175;-68
2021/12/31 12:40:50;;;;;;;6.80;1.73;;;17.90;60.90;;;;;;5054259;28;20175;-68
2021/12/31 12:43:18;;;;;;;4.53;1.38;;;17.90;60.70;;;;;;5054085;28;20234;-67
2021/12/31 12:45:45;;;;;;;3.50;1.70;;;18.00;60.70;;;;;;5052777;28;20175;-68
2021/12/31 12:48:13;;;;;;;3.47;1.40;;;18.00;60.50;;;;;;5053643;28;20589;-68
2021/12/31 12:50:45;;;;;;;2.88;1.70;;;18.00;60.50;;;;;;5052284;28;20222;-68
2021/12/31 12:53:11;;;;;;;1.95;1.45;;;18.00;60.60;;;;;;5051526;28;20590;-67